San Luis Obispo, CA (93401)

12:50 AM PST on December 25, 2014 (GMT -0800)
Lawrence Drive, San Luis Obispo | Change Station
CLOSE
Current Station
Personal Weather Station
Location: San Luis Obispo, CA
Elevation: 246 ft
Nearby Weather Stations
Active Advisory: High Surf Advisory

Elev 246 ft 35.26 °N, 120.66 °W | Updated 4 seconds ago

Clear
Clear
51.4 °F
Feels Like 51.4 °F
N
3.8
Wind Variable Wind from North
Gusts 11.4 mph

Today
High -- | Low -- °F
--% Chance of Precip.
Yesterday
High -- | Low -- °F
Precip. -- in
7:09 AM 4:56 PM
Waxing Crescent, 14% visible
Pressure 29.97 in
Visibility 10.0 miles
Clouds Clear
Dew Point 44 °F
Humidity 76%
Rainfall 0.00 in
Snow Depth Not available.
UV 0.0 out of 12
Pollen 4.80 out of 12
Air Quality Not available.
Flu Activity Not available.
METAR KSBP 250756Z AUTO 35007KT 10SM CLR 11/04 A2997 RMK AO2 SLP149 T01110044 401720061

More Conditions Fewer Conditions

Pressure 29.97 in
Visibility 10.0 miles
Clouds Clear
Dew Point 44 °F
Humidity 76%
Rainfall 0.00 in
Snow Depth Not available.
UV 0.0 out of 12
Pollen 4.80 out of 12
Air Quality Not available.
Flu Activity Not available.
METAR KSBP 250756Z AUTO 35007KT 10SM CLR 11/04 A2997 RMK AO2 SLP149 T01110044 401720061

More Conditions Fewer Conditions

10-Day Weather Forecast

Almanac

Astronomy

Dec. 25, 2014 Rise Set
Actual Time
Civil Twilight
Nautical Twilight
Astronomical Twilight
Moon
Length of Visible Light
Length of Day
Tomorrow will be .
, % of the Moon is Illuminated

Today's Extremes

State Highs State Lows

Community

WunderPhotos

Upload Photos

1,780,250 photos uploaded!

WunderBlogs® & News

Nearby

Air Quality

  Air Quality AQ Index Pollutant
Not available.

Snow Depth

Station Depth Elevation

Earthquake Activity

City Distance Mag. Time & Date
Minimum magnitude displayed is 2.5.

Coastal Water Temperatures

Place Temperature

Nearby Weather Stations